Terminal Aerodrome Forecast
Issued by NWS Paducah, KY

Home | Current Version | Previous Version | Text Only | Print | Product List | Glossary On
Versions: 1 2 3 4 5 6 7 8 9 10 11 12 13 14 15 16 17 18 19 20 21 22 23 24 25 26
377
FTUS43 KPAH 222009 AAA
TAFPAH
TAF AMD
KPAH 222009Z 2220/2318 21017G27KT P6SM SCT090
     FM230100 24012G22KT P6SM BKN070
     FM230900 25012G20KT P6SM BKN030=

USA.gov is the U.S. government's official web portal to all federal, state and local government web resources and services.